Latest Weather Observations for Manjimup

IDW60801

Issued at 8:42 am WST Friday 23 February 2024 (issued every 10 minutes, with the page automatically refreshed every 10 minutes)

About weather observations | Map of weather stations | Latest weather observations for WA | Other Formats
Station Details ID: 009573 Name: MANJIMUP Lat: -34.25 Lon: 116.14 Height: 286.7 m
Data from the previous 72 hours. | See also: Recent months at Manjimup
Date/Time
WST
Temp
°C
App
Temp
°C
Dew
Point
°C
Rel
Hum
%
Delta-T
°C
Wind Press
QNH
hPa
Press
MSL
hPa
Rain since
9am
mm
Dir  Spd
km/h
Gust
km/h
Spd
kts
Gust
kts
23/08:30am 17.2 14.8 10.1 63 3.8 NE 13 22 7 12 1019.5 1018.5 0.0
23/08:00am 16.0 12.8 9.9 67 3.2 ENE 17 28 9 15 1019.6 1018.6 0.0
23/07:30am 14.6 12.1 9.8 73 2.5 NE 13 24 7 13 1019.9 1018.9 0.0
23/07:00am 13.7 12.0 9.7 77 2.1 ENE 9 19 5 10 1019.9 1018.9 0.0
23/06:30am 12.2 10.0 9.2 82 1.5 ENE 11 20 6 11 1019.8 1018.8 0.0
23/06:00am 11.7 9.8 9.1 84 1.3 E 9 17 5 9 1019.8 1018.8 0.0
23/05:30am 11.4 9.4 8.8 84 1.3 ENE 9 13 5 7 1019.6 1018.6 0.0
23/05:00am 11.9 9.6 8.9 82 1.5 ENE 11 17 6 9 1019.6 1018.6 0.0
23/04:30am 12.5 9.8 9.1 80 1.7 E 13 20 7 11 1019.6 1018.6 0.0
23/04:00am 12.7 9.3 9.2 79 1.8 E 17 24 9 13 1019.5 1018.5 0.0
23/03:30am 13.0 10.0 9.3 78 1.9 E 15 28 8 15 1019.5 1018.5 0.0
23/03:00am 13.3 10.0 9.4 77 2.0 E 17 28 9 15 1019.7 1018.7 0.0
23/02:30am 13.4 10.0 9.3 76 2.1 E 17 26 9 14 1020.0 1019.0 0.0
23/02:00am 13.6 10.3 9.5 76 2.1 E 17 26 9 14 1020.1 1019.1 0.0
23/01:30am 13.8 10.5 9.6 76 2.2 E 17 28 9 15 1020.2 1019.2 0.0
23/01:00am 14.0 10.8 9.8 76 2.2 ESE 17 28 9 15 1020.4 1019.4 0.0
23/12:30am 14.2 11.4 10.0 76 2.2 ESE 15 28 8 15 1020.5 1019.5 0.0
23/12:00am 14.5 11.7 9.9 74 2.4 ESE 15 24 8 13 1020.8 1019.8 0.0
 
Date/Time
WST
Temp
°C
App
Temp
°C
Dew
Point
°C
Rel
Hum
%
Delta-T
°C
Wind Press
QNH
hPa
Press
MSL
hPa
Rain since
9am
mm
Dir  Spd
km/h
Gust
km/h
Spd
kts
Gust
kts
22/11:30pm 14.8 11.6 10.0 73 2.5 ESE 17 26 9 14 1021.2 1020.1 0.0
22/11:00pm 15.1 12.3 9.9 71 2.7 ESE 15 30 8 16 1021.5 1020.5 0.0
22/10:30pm 15.5 12.6 9.8 69 3.0 ESE 15 28 8 15 1021.6 1020.6 0.0
22/10:00pm 15.8 12.2 9.7 67 3.2 ESE 19 28 10 15 1021.7 1020.7 0.0
22/09:30pm 16.2 12.5 9.6 65 3.5 SE 19 30 10 16 1021.6 1020.6 0.0
22/09:00pm 16.7 12.8 9.4 62 3.8 SE 20 33 11 18 1021.6 1020.6 0.0
22/08:30pm 17.4 13.4 9.1 58 4.4 SE 20 33 11 18 1021.4 1020.3 0.0
22/08:00pm 18.3 14.3 9.1 55 4.9 SE 20 35 11 19 1021.0 1020.0 0.0
22/07:30pm 19.6 15.7 9.5 52 5.4 SE 20 35 11 19 1020.6 1019.6 0.0
22/07:00pm 20.8 17.5 9.4 48 6.1 SE 17 30 9 16 1020.1 1019.1 0.0
22/06:30pm 22.0 18.5 8.9 43 7.1 ESE 17 35 9 19 1019.8 1018.8 0.0
22/06:00pm 23.1 19.0 8.0 38 8.0 SE 19 37 10 20 1019.6 1018.6 0.0
22/05:30pm 24.7 21.0 7.8 34 9.1 SE 17 28 9 15 1019.3 1018.3 0.0
22/05:00pm 24.9 20.5 7.5 33 9.3 ESE 20 32 11 17 1019.2 1018.2 0.0
22/04:30pm 25.0 20.4 6.7 31 9.6 ESE 20 28 11 15 1019.1 1018.1 0.0
22/04:00pm 26.2 21.9 6.8 29 10.3 SE 19 33 10 18 1019.1 1018.1 0.0
22/03:30pm 25.5 21.7 7.6 32 9.6 ESE 17 35 9 19 1019.1 1018.1 0.0
22/03:00pm 25.4 21.3 8.0 33 9.4 SE 19 32 10 17 1019.3 1018.3 0.0
22/02:30pm 26.2 22.6 8.2 32 9.8 SSE 17 28 9 15 1019.3 1018.3 0.0
22/02:00pm 24.8 20.8 8.3 35 8.9 SE 19 30 10 16 1019.7 1018.7 0.0
22/01:30pm 24.2 21.0 8.6 37 8.5 ESE 15 26 8 14 1019.8 1018.8 0.0
22/01:00pm 24.0 19.8 8.4 37 8.4 SE 20 30 11 16 1020.2 1019.2 0.0
22/12:30pm 23.6 18.8 8.8 39 8.0 SSE 24 35 13 19 1020.5 1019.5 0.0
22/12:00pm 22.8 19.1 9.6 43 7.2 SSE 19 30 10 16 1020.7 1019.7 0.0
22/11:30am 22.2 17.8 9.0 43 7.1 SE 22 32 12 17 1021.2 1020.1 0.0
22/11:00am 20.9 16.6 9.2 47 6.3 SE 22 35 12 19 1021.4 1020.3 0.0
22/10:30am 20.8 17.0 9.7 49 6.0 SE 20 33 11 18 1021.7 1020.7 0.0
22/10:00am 19.6 14.8 8.9 50 5.7 SSE 24 35 13 19 1021.7 1020.7 0.0
22/09:30am 20.3 16.9 9.2 49 6.0 SE 17 30 9 16 1021.8 1020.8 0.0
22/09:00am 18.7 14.5 9.8 56 4.8 SSE 22 35 12 19 1021.6 1020.6 0.0
22/08:30am 17.9 14.2 10.0 60 4.2 SSE 20 32 11 17 1021.5 1020.5 0.0
22/08:00am 17.4 14.3 10.3 63 3.8 SSE 17 26 9 14 1021.2 1020.1 0.0
22/07:30am 16.0 13.2 9.9 67 3.2 SSE 15 22 8 12 1020.8 1019.8 0.0
22/07:00am 14.5 11.6 9.7 73 2.5 SSE 15 20 8 11 1020.6 1019.6 0.0
22/06:30am 13.6 10.7 9.6 77 2.1 SSE 15 24 8 13 1020.2 1019.2 0.0
22/06:00am 13.0 10.0 9.4 79 1.9 SSE 15 22 8 12 1019.9 1018.9 0.0
22/05:30am 13.1 10.5 9.5 79 1.9 S 13 17 7 9 1019.5 1018.5 0.0
22/05:00am 13.5 10.2 9.6 77 2.0 S 17 22 9 12 1019.2 1018.2 0.0
22/04:30am 13.8 10.1 9.6 76 2.2 S 19 24 10 13 1019.0 1018.0 0.0
22/04:00am 13.9 11.5 10.1 78 2.0 S 13 17 7 9 1018.8 1017.8 0.0
22/03:30am 12.9 10.8 9.9 82 1.6 S 11 15 6 8 1018.6 1017.6 0.0
22/03:00am 13.3 11.6 9.9 80 1.8 S 9 13 5 7 1018.6 1017.6 0.0
22/02:30am 13.8 11.4 10.0 78 2.0 S 13 17 7 9 1018.5 1017.5 0.0
22/02:00am 14.4 12.1 10.4 77 2.1 S 13 17 7 9 1018.4 1017.4 0.0
22/01:30am 14.8 12.9 10.6 76 2.2 S 11 15 6 8 1018.2 1017.1 0.0
22/01:00am 15.0 13.5 10.4 74 2.4 SSE 9 13 5 7 1018.1 1017.0 0.0
22/12:30am 15.0 13.5 10.6 75 2.4 SSE 9 13 5 7 1018.0 1016.9 0.0
22/12:00am 14.8 13.7 10.6 76 2.2 S 7 9 4 5 1018.0 1016.9 0.0
 
Date/Time
WST
Temp
°C
App
Temp
°C
Dew
Point
°C
Rel
Hum
%
Delta-T
°C
Wind Press
QNH
hPa
Press
MSL
hPa
Rain since
9am
mm
Dir  Spd
km/h
Gust
km/h
Spd
kts
Gust
kts
21/11:30pm 14.6 13.4 10.4 76 2.2 S 7 11 4 6 1018.1 1017.0 0.0
21/11:00pm 14.5 12.9 10.3 76 2.2 SSE 9 15 5 8 1017.8 1016.7 0.0
21/10:30pm 15.3 13.8 10.5 73 2.6 SSE 9 13 5 7 1017.8 1016.7 0.0
21/10:00pm 14.9 13.3 10.1 73 2.5 S 9 13 5 7 1017.6 1016.5 0.0
21/09:30pm 15.3 13.0 10.3 72 2.7 S 13 17 7 9 1017.6 1016.5 0.0
21/09:00pm 15.7 12.9 10.0 69 3.0 S 15 20 8 11 1017.2 1016.2 0.0
21/08:30pm 16.2 13.0 10.1 67 3.3 S 17 24 9 13 1017.0 1016.0 0.0
21/08:00pm 16.8 13.2 10.4 66 3.4 S 20 30 11 16 1016.5 1015.5 0.0
21/07:30pm 17.5 15.0 10.9 65 3.6 SSW 15 22 8 12 1015.9 1014.9 0.0
21/07:00pm 18.1 14.9 10.0 59 4.4 SSW 17 24 9 13 1015.4 1014.4 0.0
21/06:30pm 18.6 15.0 9.7 56 4.8 SSW 19 30 10 16 1014.9 1013.8 0.0
21/06:00pm 19.3 15.1 8.3 49 5.8 SSW 20 32 11 17 1014.3 1013.2 0.0
21/05:30pm 21.0 16.9 8.0 43 6.9 SSW 19 28 10 15 1013.7 1012.7 0.0
21/05:00pm 21.4 16.4 8.0 42 7.1 SSW 24 37 13 20 1013.3 1012.3 0.0
21/04:30pm 22.6 18.1 8.7 41 7.5 SSW 22 33 12 18 1012.9 1011.9 0.0
21/04:00pm 22.8 17.9 8.5 40 7.7 SSW 24 35 13 19 1012.5 1011.5 0.0
21/03:30pm 23.3 18.9 9.0 40 7.8 SSW 22 35 12 19 1012.3 1011.3 0.0
21/03:00pm 23.8 18.5 8.6 38 8.2 S 26 39 14 21 1012.2 1011.1 0.0
21/02:30pm 22.8 17.9 8.5 40 7.7 SW 24 39 13 21 1012.2 1011.1 0.0
21/02:00pm 21.8 17.8 10.3 48 6.4 SSW 22 30 12 16 1012.5 1011.5 0.0
21/01:30pm 21.1 18.1 12.0 56 5.2 SSW 19 26 10 14 1012.8 1011.8 0.0
21/01:00pm 20.4 17.4 12.1 59 4.7 SW 19 30 10 16 1012.6 1011.6 0.0
21/12:30pm 20.6 18.3 13.1 62 4.3 SSW 17 26 9 14 1012.3 1011.3 0.0
21/12:00pm 20.0 17.4 14.8 72 3.1 SSW 22 32 12 17 1012.1 1011.0 0.0
21/11:30am 19.0 17.2 16.0 83 1.8 SW 20 32 11 17 1011.8 1010.7 0.0
21/11:00am 19.3 16.5 15.4 78 2.3 SSW 24 39 13 21 1011.7 1010.6 0.0
21/10:30am 19.9 18.2 16.2 79 2.2 SW 20 32 11 17 1011.5 1010.4 0.0
21/10:00am 19.4 17.1 16.6 84 1.7 SW 24 37 13 20 1011.2 1010.1 0.0
21/09:30am 19.2 17.2 17.3 89 1.2 SW 24 37 13 20 1010.8 1009.7 0.0
21/09:00am 19.7 18.3 18.0 90 1.1 SW 22 35 12 19 1010.0 1009.0 0.0
21/08:30am 20.6 18.9 18.0 85 1.6 SW 24 39 13 21 1009.5 1008.5 0.0
21/08:00am 21.5 22.9 20.3 93 0.8 W 13 28 7 15 1008.8 1007.7 0.0
21/07:30am 21.0 22.9 19.8 93 0.8 W 9 20 5 11 1008.5 1007.4 0.0
21/07:00am 21.2 22.0 19.1 88 1.3 WNW 13 20 7 11 1008.1 1007.0 0.0
21/06:30am 21.6 21.6 18.2 81 2.1 WNW 15 26 8 14 1007.8 1006.7 0.0
21/06:00am 21.8 20.7 17.2 75 2.9 WNW 19 33 10 18 1007.3 1006.2 0.0
21/05:30am 21.9 20.3 16.6 72 3.3 WNW 20 43 11 23 1006.8 1005.7 0.0
21/05:00am 21.8 20.7 15.2 66 4.0 WNW 15 30 8 16 1006.7 1005.6 0.0
21/04:30am 22.4 20.0 13.7 58 5.1 WNW 19 33 10 18 1006.4 1005.4 0.0
21/04:00am 23.3 19.4 12.0 49 6.5 NW 24 41 13 22 1005.6 1004.5 0.0
21/03:30am 23.3 18.9 10.4 44 7.2 NW 24 35 13 19 1005.5 1004.4 0.0
21/03:00am 22.0 18.2 8.9 43 7.1 NNW 19 24 10 13 1005.9 1004.8 0.0
21/02:30am 22.6 18.6 8.3 40 7.7 NNW 19 26 10 14 1006.1 1005.0 0.0
21/02:00am 22.9 18.7 7.4 37 8.2 NNW 19 28 10 15 1005.8 1004.7 0.0
21/01:30am 23.2 18.7 6.9 35 8.5 NNW 20 26 11 14 1006.0 1004.9 0.0
21/01:00am 23.7 19.3 6.5 33 9.0 NNW 19 30 10 16 1006.3 1005.3 0.0
21/12:30am 24.1 19.3 5.5 30 9.5 NNW 20 26 11 14 1006.6 1005.5 0.0
21/12:00am 24.7 20.1 5.5 29 9.9 NNW 19 26 10 14 1006.8 1005.7 0.0
 
Date/Time
WST
Temp
°C
App
Temp
°C
Dew
Point
°C
Rel
Hum
%
Delta-T
°C
Wind Press
QNH
hPa
Press
MSL
hPa
Rain since
9am
mm
Dir  Spd
km/h
Gust
km/h
Spd
kts
Gust
kts
20/11:30pm 24.8 20.1 5.1 28 10.1 NNW 19 26 10 14 1007.1 1006.0 0.0
20/11:00pm 25.3 20.9 5.0 27 10.4 NNW 17 24 9 13 1007.5 1006.4 0.0
20/10:30pm 26.0 21.6 5.0 26 10.8 NNW 17 24 9 13 1007.9 1006.8 0.0
20/10:00pm 27.0 22.5 4.1 23 11.7 NNW 17 24 9 13 1008.3 1007.2 0.0
20/09:30pm 27.6 23.1 4.0 22 12.1 NNW 17 22 9 12 1008.3 1007.2 0.0
20/09:00pm 28.5 24.0 4.1 21 12.6 NNW 17 24 9 13 1008.4 1007.3 0.0
20/08:30pm 29.3 25.1 4.0 20 13.1 NNW 15 19 8 10 1008.5 1007.4 0.0
20/08:00pm 30.2 26.0 4.0 19 13.6 NNW 15 20 8 11 1008.4 1007.3 0.0
20/07:30pm 31.7 27.5 3.7 17 14.6 NNW 15 22 8 12 1008.2 1007.1 0.0
20/07:00pm 33.3 28.2 3.2 15 15.7 NNW 19 30 10 16 1008.1 1007.0 0.0
20/06:30pm 34.7 28.5 2.3 13 16.8 NW 24 41 13 22 1007.9 1006.8 0.0
20/06:00pm 35.7 29.5 1.9 12 17.5 NNW 24 39 13 21 1007.7 1006.6 0.0
20/05:30pm 37.0 29.4 0.4 10 18.6 NW 30 52 16 28 1007.7 1006.6 0.0
20/05:00pm 38.1 30.6 1.2 10 19.2 NW 30 52 16 28 1007.5 1006.4 0.0
20/04:41pm 39.0 32.1 0.4 9 19.9 NW 26 46 14 25 1007.5 1006.4 0.0
20/04:30pm 39.1 31.7 1.9 10 19.6 NNW 30 44 16 24 1007.6 1006.5 0.0
20/04:03pm 39.4 32.1 2.2 10 19.8 NW 30 48 16 26 1007.2 1006.1 0.0
20/04:00pm 39.1 30.8 1.9 10 19.7 NW 35 48 19 26 1007.3 1006.2 0.0
20/03:30pm 40.6 34.6 3.1 10 20.3 NW 24 41 13 22 1007.3 1006.2 0.0
20/03:03pm 40.2 33.3 2.8 10 20.1 NW 28 50 15 27 1007.2 1006.1 0.0
20/03:00pm 40.2 34.1 2.8 10 20.2 WNW 24 50 13 27 1007.2 1006.1 0.0
20/02:30pm 40.5 33.7 3.0 10 20.3 NW 28 46 15 25 1007.5 1006.4 0.0
20/02:00pm 40.3 32.7 2.8 10 20.2 NW 32 50 17 27 1007.7 1006.6 0.0
20/01:32pm 40.4 33.2 2.9 10 20.2 NW 30 48 16 26 1007.8 1006.7 0.0
20/01:30pm 40.3 32.7 2.8 10 20.2 NW 32 48 17 26 1007.7 1006.6 0.0
20/01:04pm 40.0 33.1 2.6 10 20.0 NNW 28 46 15 25 1008.1 1007.0 0.0
20/01:00pm 41.0 34.6 3.4 10 20.5 NNW 26 44 14 24 1008.0 1006.9 0.0
20/12:30pm 39.6 33.5 4.9 12 19.2 NW 26 44 14 24 1008.4 1007.3 0.0
20/12:00pm 39.6 34.1 6.1 13 18.9 NW 24 39 13 21 1008.7 1007.6 0.0
20/11:30am 38.9 34.0 8.5 16 17.7 NW 24 39 13 21 1008.9 1007.8 0.0
20/11:00am 37.3 33.1 9.8 19 16.2 NNW 22 39 12 21 1009.3 1008.3 0.0
20/10:30am 34.9 31.0 10.7 23 14.3 NNW 22 32 12 17 1009.6 1008.6 0.0
20/10:00am 32.6 29.2 11.2 27 12.6 NNW 20 33 11 18 1009.9 1008.9 0.0
20/09:30am 31.4 28.0 11.2 29 11.9 NNW 20 30 11 16 1009.8 1008.8 0.0
20/09:00am 29.3 26.1 11.4 33 10.5 N 19 32 10 17 1009.6 1008.6 -

Other formats

Comma delimited format used in spreadsheet applications
http://www.bom.gov.au/fwo/IDW60801/IDW60801.94617.axf

JavaScript Object Notation format (JSON) in row-major order
http://www.bom.gov.au/fwo/IDW60801/IDW60801.94617.json

Data quality

Most of these data are generated automatically and are frequently updated. Quality checks on data are not normally performed. It is possible for incorrect values to appear. Refer to information at About Latest Weather Observations and please check the disclaimer before using these data.